This is the latest recevied weather packets stored in our database for station/object EFTU. If no packets are shown the sender has not sent any weather packets the latest 10 day(s).
| Time | Temp. | Humidity | Pressure | Rain* | Wind** | Luminosity | Snow |
|---|---|---|---|---|---|---|---|
| 1777789630 | 7.78° C | 92% | 1007.9 hPa | - | - | - | - |
| 1777788430 | 7.22° C | 94% | 1007.7 hPa | - | - | - | - |
| 1777787230 | 7.22° C | 95% | 1007.6 hPa | - | - | - | - |
| 1777786030 | 7.22° C | 93% | 1007.2 hPa | - | - | - | - |
| 1777784830 | 6.67° C | 94% | 1007.1 hPa | - | - | - | - |
| 1777783630 | 6.67° C | 92% | 1007 hPa | - | - | - | - |
| 1777782430 | 7.22° C | 89% | 1006.9 hPa | - | - | - | - |
| 1777781230 | 7.78° C | 82% | 1006.9 hPa | - | - | - | - |
| 1777780030 | 7.22° C | 80% | 1006.9 hPa | - | - | - | - |
| 1777778830 | 6.67° C | 86% | 1006.8 hPa | - | - | - | - |
| 1777777630 | 5.56° C | 89% | 1006.4 hPa | - | - | - | - |
| 1777776430 | 5.56° C | 89% | 1006.2 hPa | - | - | - | - |
| 1777775229 | 6.11° C | 87% | 1005.9 hPa | - | - | - | - |
| 1777774030 | 5.56° C | 89% | 1006 hPa | - | - | - | - |
| 1777772830 | 5.56° C | 89% | 1005.9 hPa | - | - | - | - |
| 1777771630 | 4.44° C | 91% | 1005.9 hPa | - | - | - | - |
| 1777770430 | 4.44° C | 89% | 1005.8 hPa | - | - | - | - |
| 1777769230 | 6.11° C | 83% | 1005.5 hPa | - | - | - | - |
| 1777768030 | 5.56° C | 87% | 1005.9 hPa | - | - | - | - |
| 1777766830 | 4.44° C | 86% | 1006.1 hPa | - | - | - | - |
| 1777765630 | 6.11° C | 86% | 1005.9 hPa | - | - | - | - |
| 1777764429 | 6.67° C | 81% | 1005.8 hPa | - | - | - | - |
| 1777763229 | 7.78° C | 78% | 1005.5 hPa | - | - | - | - |
| 1777762030 | 6.11° C | 83% | 1005.9 hPa | - | - | - | - |
| 1777760830 | 7.78° C | 76% | 1005.9 hPa | - | - | - | - |
* Rain since midnight (hover to see other rain measurements)
** Current wind speed in m/s (hover to see current wind gust speed)